Wednesday, November 22, 2017, 8:56 AM GMT
Back to Local

CWSD, Summerside Automatic Weather Reporting System

Location: , , Canada Lat: 46.433
Local Time: 8:56 AM GMT ( 8:56 GMT) Lon: -63.85
Time Zone: GMT Elev: 78 ft

Show me the last for .
Show Coded

Time T Td Feel RH Dir Speed Gust Alt SLP Vis Weather Sky Remarks
2017-11-22 08:00 39 38 33 95 190° 9 - - 30.00 0 None
2017-11-22 07:00 41 40 34 93 190° 13 - - 30.01 0 None
2017-11-22 06:00 41 39 32 91 190° 14 20 - 30.00 0 Peak wind: 20 mph (18 kts) from 180° at 04 min
2017-11-22 05:00 42 39 33 89 180° 15 21 - 30.00 0 Peak wind: 20 mph (18 kts) from 180° at 56 min
2017-11-22 04:00 41 38 33 88 180° 15 - - 29.99 0 Peak wind: 21 mph (19 kts) from 190° at 29 min
2017-11-22 03:00 40 37 32 88 180° 15 - - 29.99 0 Peak wind: 20 mph (18 kts) from 180° at 45 min
2017-11-22 02:00 39 34 31 81 190° 16 - - 30.01 0 Peak wind: 20 mph (18 kts) from 190° at 38 min
2017-11-22 01:00 38 33 30 80 190° 16 - - 30.02 0 Peak wind: 23 mph (20 kts) from 190° at 26 min
2017-11-22 00:00 37 32 26 81 190° 17 25 - 30.03 0 Peak wind: 25 mph (22 kts) from 200° at 59 min
2017-11-21 23:00 35 30 26 82 180° 13 - - 30.04 0 None
2017-11-21 22:00 36 32 25 85 210° 15 21 - 30.05 0 Peak wind: 20 mph (18 kts) from 200° at 52 min
2017-11-21 20:00 33 19 27 57 220° 6 - - 30.06 0 None
2017-11-21 18:00 31 15 20 51 240° 16 - - 30.06 0 Peak wind: 25 mph (22 kts) from 230° at 11 min
2017-11-21 17:00 28 14 13 54 240° 20 25 - 30.05 0 Peak wind: 26 mph (23 kts) from 240° at 08 min
2017-11-21 16:00 26 14 13 60 250° 18 - - 30.05 0 Peak wind: 25 mph (22 kts) from 250° at 32 min
2017-11-21 15:00 24 12 9 60 270° 15 21 - 30.04 0 Peak wind: 24 mph (21 kts) from 260° at 21 min
2017-11-21 14:00 24 13 8 62 270° 17 24 - 30.03 0 Peak wind: 27 mph (24 kts) from 260° at 40 min
2017-11-21 13:00 21 13 3 73 270° 21 28 - 30.02 0 Peak wind: 27 mph (24 kts) from 270° at 52 min
2017-11-21 12:00 19 13 2 75 270° 17 24 - 29.99 0 Peak wind: 27 mph (24 kts) from 260° at 16 min
2017-11-21 11:00 19 14 2 77 260° 18 24 - 29.97 0 Peak wind: 24 mph (21 kts) from 250° at 26 min
2017-11-21 10:00 20 14 4 77 250° 15 21 - 29.93 0 Peak wind: 25 mph (22 kts) from 270° at 25 min
2017-11-21 09:00 21 15 4 77 260° 16 23 - 29.90 0 Peak wind: 23 mph (20 kts) from 250° at 58 min

Support USWX by starting your Amazon purchase here.